Houyoshi Park — D5KW8 — position and weather

sailwx.info

Track history (hours):
 
Tides and Currents Weather Stations Pressure Air Temp Water Temp Dewpoint Dewpoint Depression Visibility Wind Speed Wind Dir Waves Ship Positions

Houyoshi Park

Last reported at 2018-Jan-31 09:53 UTC. Time now 2018-Feb-22 19:25 UTC.
Position N 37°30' E 025°55'.
Warning: this ship's position is 22 days out of date.

Length 146 m; draft 9.9 m.

Type: Tanker. MMSI: 636017424.

Date/timePositionNaut miles runAvg speedWind from/ knotsBaromVisibWave heightAir tempDewpointWater temp
2018-Jan-31 09:53N 37°30' E 025°55'513.7
2018-Jan-31 09:30N 37°35' E 025°53'245 9.0
2018-Jan-30 06:15N 40°57' E 028°53'1 1.6
2018-Jan-30 05:56N 40°57' E 028°54'3 7.0
2018-Jan-30 05:29N 40°58' E 028°58'323 9.2
2018-Jan-28 18:22N 46°08' E 031°03'513.2
2018-Jan-28 18:00N 46°12' E 030°59'612.0
2018-Jan-28 17:30N 46°17' E 030°55'612.7
2018-Jan-28 17:00N 46°23' E 030°55'612.7
2018-Jan-28 16:30N 46°30' E 030°55'5 9.1
2018-Jan-28 16:00N 46°33' E 030°59'4 8.2
2018-Jan-28 15:30N 46°35' E 031°05'5 9.8
2018-Jan-28 15:00N 46°35' E 031°12'510.2
2018-Jan-28 14:30N 46°35' E 031°19'24 8.7
2018-Jan-28 11:47N 46°38' E 031°53'2 8.8
2018-Jan-28 11:30N 46°39' E 031°56'4 8.7
2018-Jan-28 11:00N 46°44' E 031°56'2 3.6
2018-Jan-28 10:30N 46°46' E 031°56'1 1.7
2018-Jan-28 10:00N 46°46' E 031°57'0 0.0
2018-Jan-28 09:28N 46°46' E 031°57'0 0.0
2018-Jan-28 08:55N 46°46' E 031°57'0 0.0
2018-Jan-28 08:28N 46°46' E 031°57'0 0.0
2018-Jan-28 07:55N 46°46' E 031°57'0 0.0
2018-Jan-28 07:28N 46°46' E 031°57'0 0.0
2018-Jan-28 06:58N 46°46' E 031°57'0 0.0
2018-Jan-28 06:28N 46°46' E 031°57'0 0.0
2018-Jan-28 05:58N 46°46' E 031°57'0 0.0
2018-Jan-28 05:25N 46°46' E 031°57'0 0.0
2018-Jan-28 04:58N 46°46' E 031°57'0 0.0
2018-Jan-28 04:28N 46°46' E 031°57'0 0.0
2018-Jan-28 03:58N 46°46' E 031°57'0 0.0
2018-Jan-28 03:28N 46°46' E 031°57'0 0.0
2018-Jan-28 02:58N 46°46' E 031°57'0 0.0
2018-Jan-28 02:25N 46°46' E 031°57'0 0.0
2018-Jan-28 01:58N 46°46' E 031°57'0 0.0
2018-Jan-28 01:28N 46°46' E 031°57'0 0.0
2018-Jan-28 00:58N 46°46' E 031°57'0 0.0
2018-Jan-28 00:28N 46°46' E 031°57'0 0.0
2018-Jan-27 23:52N 46°46' E 031°57'0 0.0
2018-Jan-27 23:28N 46°46' E 031°57'0 0.0
2018-Jan-27 22:58N 46°46' E 031°57'0 0.0
2018-Jan-27 22:28N 46°46' E 031°57'0 0.0
2018-Jan-27 21:52N 46°46' E 031°57'0 0.0
2018-Jan-27 21:25N 46°46' E 031°57'0 0.0
2018-Jan-27 20:58N 46°46' E 031°57'0 0.0
2018-Jan-27 20:28N 46°46' E 031°57'0 0.0
2018-Jan-27 19:55N 46°46' E 031°57'0 0.0
2018-Jan-27 19:25N 46°46' E 031°57'0 0.0
2018-Jan-27 18:58N 46°46' E 031°57'0 0.0
2018-Jan-27 18:25N 46°46' E 031°57'0 0.0
2018-Jan-27 17:58N 46°46' E 031°57'0 0.0
2018-Jan-27 17:28N 46°46' E 031°57'0 0.0
2018-Jan-27 16:55N 46°46' E 031°57'0 0.0
2018-Jan-27 16:28N 46°46' E 031°57'0 0.0
2018-Jan-27 15:58N 46°46' E 031°57'0 0.0
2018-Jan-27 15:28N 46°46' E 031°57'0 0.0
2018-Jan-27 14:55N 46°46' E 031°57'0 0.0
2018-Jan-27 14:25N 46°46' E 031°57'0 0.0
2018-Jan-27 13:55N 46°46' E 031°57'0 0.0
2018-Jan-27 13:28N 46°46' E 031°57'0 0.0
2018-Jan-27 12:55N 46°46' E 031°57'0 0.0
2018-Jan-27 12:28N 46°46' E 031°57'0 0.0
2018-Jan-27 11:58N 46°46' E 031°57'0 0.0
2018-Jan-27 11:28N 46°46' E 031°57'0 0.0
2018-Jan-27 10:49N 46°46' E 031°57'0 0.0
2018-Jan-27 10:28N 46°46' E 031°57'0 0.0
2018-Jan-27 09:55N 46°46' E 031°57'0 0.0
2018-Jan-27 09:28N 46°46' E 031°57'0 0.0
2018-Jan-27 08:55N 46°46' E 031°57'0 0.0
2018-Jan-27 08:25N 46°46' E 031°57'0 0.0
2018-Jan-27 07:58N 46°46' E 031°57'0 0.0
2018-Jan-27 07:28N 46°46' E 031°57'0 0.0
2018-Jan-27 06:55N 46°46' E 031°57'0 0.0
2018-Jan-27 06:28N 46°46' E 031°57'0 0.0
2018-Jan-27 05:58N 46°46' E 031°57'0 0.0
2018-Jan-27 05:28N 46°46' E 031°57'0 0.0
2018-Jan-27 04:55N 46°46' E 031°57'0 0.0
2018-Jan-27 04:28N 46°46' E 031°57'0 0.0
2018-Jan-27 03:58N 46°46' E 031°57'0 0.0
2018-Jan-27 03:28N 46°46' E 031°57'0 0.0
2018-Jan-27 03:00N 46°46' E 031°57'1 1.8
2018-Jan-27 02:30N 46°46' E 031°56'1 2.1
2018-Jan-27 01:58N 46°45' E 031°55'0 0.0
2018-Jan-27 01:28N 46°45' E 031°55'0 0.0
2018-Jan-27 00:58N 46°45' E 031°55'0 0.0
2018-Jan-27 00:28N 46°45' E 031°55'1 3.1
2018-Jan-27 00:00N 46°44' E 031°56'4 7.1
2018-Jan-26 23:30N 46°40' E 031°56'4 7.3
2018-Jan-26 23:00N 46°37' E 031°53'5 9.8
2018-Jan-26 22:30N 46°36' E 031°46'3 6.7
2018-Jan-26 22:00N 46°36' E 031°41'5 9.6
2018-Jan-26 21:30N 46°35' E 031°34'3 6.2
2018-Jan-26 20:58N 46°36' E 031°29'910.0
2018-Jan-26 20:07N 46°35' E 031°17'110.0
2018-Jan-26 19:58N 46°35' E 031°15'4 9.1
2018-Jan-26 19:30N 46°35' E 031°09'5 9.7
2018-Jan-26 19:00N 46°34' E 031°02'3 6.3
2018-Jan-26 18:30N 46°33' E 030°58'3 5.1
2018-Jan-26 18:01N 46°30' E 030°57'3 6.9
2018-Jan-26 17:30N 46°27' E 030°57'4 8.6
2018-Jan-26 17:01N 46°23' E 030°58'510.9
2018-Jan-26 16:30N 46°20' E 031°05'1 2.8
2018-Jan-26 16:00N 46°18' E 031°06'0 0.0
2018-Jan-26 15:30N 46°18' E 031°06'0 0.0
2018-Jan-26 15:01N 46°18' E 031°06'0 0.0
2018-Jan-26 14:31N 46°18' E 031°06'0 0.0
2018-Jan-26 14:00N 46°18' E 031°06'0 0.0
2018-Jan-26 13:30N 46°18' E 031°06'0 0.2
2018-Jan-26 13:01N 46°18' E 031°06'3 5.0
2018-Jan-26 12:30N 46°16' E 031°03'510.7
2018-Jan-26 12:00N 46°11' E 031°05'713.4
2018-Jan-26 11:27N 46°05' E 031°11'27710.9
2018-Jan-25 10:01N 44°25' E 037°18'014.4
2018-Jan-25 10:00N 44°25' E 037°18'714.5
2018-Jan-25 09:30N 44°29' E 037°27'815.0
2018-Jan-25 09:00N 44°33' E 037°36'714.2
2018-Jan-25 08:30N 44°36' E 037°45'611.0
2018-Jan-25 08:00N 44°40' E 037°51'4 8.6
2018-Jan-25 07:30N 44°43' E 037°48'1 1.6
2018-Jan-25 07:00N 44°44' E 037°47'0 0.0
2018-Jan-25 06:28N 44°44' E 037°47'0 0.0
2018-Jan-25 05:58N 44°44' E 037°47'0 0.0
2018-Jan-25 05:28N 44°44' E 037°47'0 0.0
2018-Jan-25 04:58N 44°44' E 037°47'0 0.0
2018-Jan-25 04:28N 44°44' E 037°47'0 0.0
2018-Jan-25 03:58N 44°44' E 037°47'0 0.0
2018-Jan-25 03:28N 44°44' E 037°47'0 0.0
2018-Jan-25 02:58N 44°44' E 037°47'0 0.0
2018-Jan-25 02:25N 44°44' E 037°47'0 0.0
2018-Jan-25 01:55N 44°44' E 037°47'0 0.0
2018-Jan-25 01:28N 44°44' E 037°47'0 0.0
2018-Jan-25 00:58N 44°44' E 037°47'0 0.0
2018-Jan-25 00:28N 44°44' E 037°47'0 0.0
2018-Jan-24 23:58N 44°44' E 037°47'0 0.0
2018-Jan-24 23:28N 44°44' E 037°47'0 0.0
2018-Jan-24 22:58N 44°44' E 037°47'0 0.0
2018-Jan-24 22:28N 44°44' E 037°47'0 0.0
2018-Jan-24 21:58N 44°44' E 037°47'0 0.0
2018-Jan-24 21:25N 44°44' E 037°47'0 0.0
2018-Jan-24 20:58N 44°44' E 037°47'0 0.0
2018-Jan-24 20:28N 44°44' E 037°47'0 0.0
2018-Jan-24 19:58N 44°44' E 037°47'0 0.0
2018-Jan-24 19:28N 44°44' E 037°47'0 0.0
2018-Jan-24 18:58N 44°44' E 037°47'0 0.0
2018-Jan-24 18:28N 44°44' E 037°47'0 0.0
2018-Jan-24 17:58N 44°44' E 037°47'0 0.0
2018-Jan-24 17:28N 44°44' E 037°47'0 0.0
2018-Jan-24 16:58N 44°44' E 037°47'0 0.0
2018-Jan-24 16:28N 44°44' E 037°47'0 0.0
2018-Jan-24 15:55N 44°44' E 037°47'0 0.0
2018-Jan-24 15:28N 44°44' E 037°47'0 0.0
2018-Jan-24 14:59N 44°44' E 037°47'0 0.0
2018-Jan-24 14:28N 44°44' E 037°47'0 0.0
2018-Jan-24 13:55N 44°44' E 037°47'0 0.0
2018-Jan-24 13:28N 44°44' E 037°47'0 0.0
2018-Jan-24 12:58N 44°44' E 037°47'0 0.0
2018-Jan-24 12:28N 44°44' E 037°47'0 0.0
2018-Jan-24 11:58N 44°44' E 037°47'0 0.0
2018-Jan-24 11:28N 44°44' E 037°47'0 0.0
2018-Jan-24 10:58N 44°44' E 037°47'0 0.0
2018-Jan-24 10:28N 44°44' E 037°47'0 0.0
2018-Jan-24 09:55N 44°44' E 037°47'0 0.0
2018-Jan-24 09:28N 44°44' E 037°47'0 0.0
2018-Jan-24 08:58N 44°44' E 037°47'0 0.0
2018-Jan-24 08:28N 44°44' E 037°47'0 0.0
2018-Jan-24 07:58N 44°44' E 037°47'0 0.0
2018-Jan-24 07:28N 44°44' E 037°47'0 0.0
2018-Jan-24 06:58N 44°44' E 037°47'0 0.0
2018-Jan-24 06:28N 44°44' E 037°47'0 0.0
2018-Jan-24 05:58N 44°44' E 037°47'0 0.0
2018-Jan-24 05:28N 44°44' E 037°47'0 0.0
2018-Jan-24 04:55N 44°44' E 037°47'0 0.0
2018-Jan-24 04:28N 44°44' E 037°47'0 0.0
2018-Jan-24 03:58N 44°44' E 037°47'0 0.0
2018-Jan-24 03:28N 44°44' E 037°47'0 0.0
2018-Jan-24 02:58N 44°44' E 037°47'0 0.0
2018-Jan-24 02:25N 44°44' E 037°47'0 0.0
2018-Jan-24 01:58N 44°44' E 037°47'0 0.0
2018-Jan-24 01:28N 44°44' E 037°47'0 0.0
2018-Jan-24 00:58N 44°44' E 037°47'0 0.0
2018-Jan-24 00:28N 44°44' E 037°47'0 0.0
2018-Jan-23 23:58N 44°44' E 037°47'0 0.0
2018-Jan-23 23:25N 44°44' E 037°47'0 0.0
2018-Jan-23 22:58N 44°44' E 037°47'0 0.0
2018-Jan-23 22:28N 44°44' E 037°47'0 0.0
2018-Jan-23 21:58N 44°44' E 037°47'0 0.0
2018-Jan-23 21:28N 44°44' E 037°47'0 0.0
2018-Jan-23 20:55N 44°44' E 037°47'0 0.0
2018-Jan-23 20:28N 44°44' E 037°47'0 0.0
2018-Jan-23 19:58N 44°44' E 037°47'0 0.0
2018-Jan-23 19:28N 44°44' E 037°47'0 0.0
2018-Jan-23 18:55N 44°44' E 037°47'0 0.0
2018-Jan-23 18:28N 44°44' E 037°47'0 0.0
2018-Jan-23 17:58N 44°44' E 037°47'0 0.0
2018-Jan-23 17:28N 44°44' E 037°47'0 0.0
2018-Jan-23 16:58N 44°44' E 037°47'0 0.0
2018-Jan-23 16:28N 44°44' E 037°47'0 0.0
2018-Jan-23 15:58N 44°44' E 037°47'0 0.0
2018-Jan-23 15:28N 44°44' E 037°47'0 0.0
2018-Jan-23 14:52N 44°44' E 037°47'0 0.0
2018-Jan-23 14:28N 44°44' E 037°47'0 0.0
2018-Jan-23 13:58N 44°44' E 037°47'0 0.0
2018-Jan-23 13:28N 44°44' E 037°47'0 0.0
2018-Jan-23 12:58N 44°44' E 037°47'0 0.0
2018-Jan-23 12:28N 44°44' E 037°47'0 0.0
2018-Jan-23 11:58N 44°44' E 037°47'0 0.0
2018-Jan-23 11:28N 44°44' E 037°47'0 0.0
2018-Jan-23 10:58N 44°44' E 037°47'0 0.0
2018-Jan-23 10:28N 44°44' E 037°47'0 0.0
2018-Jan-23 09:58N 44°44' E 037°47'0 0.0
2018-Jan-23 09:28N 44°44' E 037°47'0 0.0
2018-Jan-23 08:58N 44°44' E 037°47'0 0.0
2018-Jan-23 08:28N 44°44' E 037°47'0 0.0
2018-Jan-23 07:58N 44°44' E 037°47'0 0.0
2018-Jan-23 07:28N 44°44' E 037°47'0 0.0
2018-Jan-23 06:58N 44°44' E 037°47'0 0.0
2018-Jan-23 06:28N 44°44' E 037°47'0 0.0
2018-Jan-23 05:58N 44°44' E 037°47'0 0.0
2018-Jan-23 05:28N 44°44' E 037°47'0 0.0
2018-Jan-23 04:58N 44°44' E 037°47'0 0.0
2018-Jan-23 04:28N 44°44' E 037°47'0 0.0
2018-Jan-23 03:58N 44°44' E 037°47'0 0.0
2018-Jan-23 03:28N 44°44' E 037°47'0 0.0
2018-Jan-23 02:58N 44°44' E 037°47'0 0.0
2018-Jan-23 02:28N 44°44' E 037°47'0 0.0
2018-Jan-23 01:58N 44°44' E 037°47'0 0.0
2018-Jan-23 01:28N 44°44' E 037°47'0 0.0
2018-Jan-23 00:55N 44°44' E 037°47'0 0.0
2018-Jan-23 00:28N 44°44' E 037°47'0 0.0
2018-Jan-22 23:58N 44°44' E 037°47'0 0.0
2018-Jan-22 23:28N 44°44' E 037°47'0 0.0
2018-Jan-22 22:55N 44°44' E 037°47'0 0.0
2018-Jan-22 22:28N 44°44' E 037°47'0 0.0
2018-Jan-22 21:58N 44°44' E 037°47'0 0.0
2018-Jan-22 21:25N 44°44' E 037°47'0 0.0
2018-Jan-22 20:55N 44°44' E 037°47'0 0.0
2018-Jan-22 20:28N 44°44' E 037°47'0 0.0
2018-Jan-22 19:58N 44°44' E 037°47'0 0.0
2018-Jan-22 19:25N 44°44' E 037°47'0 0.0
2018-Jan-22 18:49N 44°44' E 037°47'0 0.0
2018-Jan-22 18:28N 44°44' E 037°47'0 0.0
2018-Jan-22 17:58N 44°44' E 037°47'0 0.0
2018-Jan-22 17:28N 44°44' E 037°47'0 0.0
2018-Jan-22 16:58N 44°44' E 037°47'0 0.0
2018-Jan-22 16:28N 44°44' E 037°47'0 0.0
2018-Jan-22 15:55N 44°44' E 037°47'0 0.0
2018-Jan-22 15:28N 44°44' E 037°47'0 0.0
2018-Jan-22 14:58N 44°44' E 037°47'0 0.0
2018-Jan-22 14:28N 44°44' E 037°47'0 0.0
2018-Jan-22 13:58N 44°44' E 037°47'0 0.0
2018-Jan-22 13:28N 44°44' E 037°47'0 0.0
2018-Jan-22 12:58N 44°44' E 037°47'0 0.0
2018-Jan-22 12:28N 44°44' E 037°47'0 0.0
2018-Jan-22 11:58N 44°44' E 037°47'0 0.0
2018-Jan-22 11:28N 44°44' E 037°47'0 0.0
2018-Jan-22 10:58N 44°44' E 037°47'0 0.0
2018-Jan-22 10:28N 44°44' E 037°47'0 0.0
2018-Jan-22 09:58N 44°44' E 037°47'0 0.0
2018-Jan-22 09:25N 44°44' E 037°47'0 0.0
2018-Jan-22 08:55N 44°44' E 037°47'0 0.0
2018-Jan-22 08:28N 44°44' E 037°47'0 0.0
2018-Jan-22 07:58N 44°44' E 037°47'0 0.0
2018-Jan-22 07:28N 44°44' E 037°47'0 0.0
2018-Jan-22 06:58N 44°44' E 037°47'0 0.0
2018-Jan-22 06:28N 44°44' E 037°47'0 0.0
2018-Jan-22 05:58N 44°44' E 037°47'0 0.0
2018-Jan-22 05:28N 44°44' E 037°47'0 0.0
2018-Jan-22 04:58N 44°44' E 037°47'0 0.0
2018-Jan-22 04:28N 44°44' E 037°47'0 0.0
2018-Jan-22 03:58N 44°44' E 037°47'0 0.0
2018-Jan-22 03:22N 44°44' E 037°47'0 0.0
2018-Jan-22 02:58N 44°44' E 037°47'0 0.0
2018-Jan-22 02:28N 44°44' E 037°47'0 0.0
2018-Jan-22 01:58N 44°44' E 037°47'0 0.0
2018-Jan-22 01:28N 44°44' E 037°47'0 0.0
2018-Jan-22 00:58N 44°44' E 037°47'0 0.0
2018-Jan-22 00:28N 44°44' E 037°47'0 0.0
2018-Jan-21 23:58N 44°44' E 037°47'0 0.0
2018-Jan-21 23:28N 44°44' E 037°47'0 0.0
2018-Jan-21 22:58N 44°44' E 037°47'0 0.0
2018-Jan-21 22:28N 44°44' E 037°47'0 0.0
2018-Jan-21 21:58N 44°44' E 037°47'0 0.0
2018-Jan-21 21:28N 44°44' E 037°47'0 0.0
2018-Jan-21 20:58N 44°44' E 037°47'0 0.0
2018-Jan-21 20:28N 44°44' E 037°47'0 0.0
2018-Jan-21 19:58N 44°44' E 037°47'0 0.0
2018-Jan-21 19:28N 44°44' E 037°47'0 0.0
2018-Jan-21 18:58N 44°44' E 037°47'0 0.0
2018-Jan-21 18:28N 44°44' E 037°47'0 0.0
2018-Jan-21 17:55N 44°44' E 037°47'0 0.0
2018-Jan-21 17:28N 44°44' E 037°47'0 0.0
2018-Jan-21 16:58N 44°44' E 037°47'0 0.0
2018-Jan-21 16:28N 44°44' E 037°47'0 0.0
2018-Jan-21 15:58N 44°44' E 037°47'0 0.0
2018-Jan-21 15:28N 44°44' E 037°47'0 0.0
2018-Jan-21 14:58N 44°44' E 037°47'0 0.0
2018-Jan-21 14:28N 44°44' E 037°47'0 0.0
2018-Jan-21 13:58N 44°44' E 037°47'0 0.0
2018-Jan-21 13:28N 44°44' E 037°47'0 0.0
2018-Jan-21 12:52N 44°44' E 037°47'0 0.0
2018-Jan-21 12:28N 44°44' E 037°47'0 0.0
2018-Jan-21 11:58N 44°44' E 037°47'0 0.0
2018-Jan-21 11:28N 44°44' E 037°47'0 0.0
2018-Jan-21 10:58N 44°44' E 037°47'0 0.0
2018-Jan-21 10:28N 44°44' E 037°47'0 0.0
2018-Jan-21 09:58N 44°44' E 037°47'  
Track history (hours):
 
Tides and Currents Weather Stations Pressure Air Temp Water Temp Dewpoint Dewpoint Depression Visibility Wind Speed Wind Dir Waves Ship Positions

Houyoshi Park

Last reported at 2018-Jan-31 09:53 UTC. Time now 2018-Feb-22 19:25 UTC.
Position N 37°30' E 025°55'.
Warning: this ship's position is 22 days out of date.

Length 146 m; draft 9.9 m.

Type: Tanker. MMSI: 636017424.

Date/timePositionNaut miles runAvg speedWind from/ knotsBaromVisibWave heightAir tempDewpointWater temp
2018-Jan-31 09:53N 37°30' E 025°55'513.7
2018-Jan-31 09:30N 37°35' E 025°53'245 9.0
2018-Jan-30 06:15N 40°57' E 028°53'1 1.6
2018-Jan-30 05:56N 40°57' E 028°54'3 7.0
2018-Jan-30 05:29N 40°58' E 028°58'323 9.2
2018-Jan-28 18:22N 46°08' E 031°03'513.2
2018-Jan-28 18:00N 46°12' E 030°59'612.0
2018-Jan-28 17:30N 46°17' E 030°55'612.7
2018-Jan-28 17:00N 46°23' E 030°55'612.7
2018-Jan-28 16:30N 46°30' E 030°55'5 9.1
2018-Jan-28 16:00N 46°33' E 030°59'4 8.2
2018-Jan-28 15:30N 46°35' E 031°05'5 9.8
2018-Jan-28 15:00N 46°35' E 031°12'510.2
2018-Jan-28 14:30N 46°35' E 031°19'24 8.7
2018-Jan-28 11:47N 46°38' E 031°53'2 8.8
2018-Jan-28 11:30N 46°39' E 031°56'4 8.7
2018-Jan-28 11:00N 46°44' E 031°56'2 3.6
2018-Jan-28 10:30N 46°46' E 031°56'1 1.7
2018-Jan-28 10:00N 46°46' E 031°57'0 0.0
2018-Jan-28 09:28N 46°46' E 031°57'0 0.0
2018-Jan-28 08:55N 46°46' E 031°57'0 0.0
2018-Jan-28 08:28N 46°46' E 031°57'0 0.0
2018-Jan-28 07:55N 46°46' E 031°57'0 0.0
2018-Jan-28 07:28N 46°46' E 031°57'0 0.0
2018-Jan-28 06:58N 46°46' E 031°57'0 0.0
2018-Jan-28 06:28N 46°46' E 031°57'0 0.0
2018-Jan-28 05:58N 46°46' E 031°57'0 0.0
2018-Jan-28 05:25N 46°46' E 031°57'0 0.0
2018-Jan-28 04:58N 46°46' E 031°57'0 0.0
2018-Jan-28 04:28N 46°46' E 031°57'0 0.0
2018-Jan-28 03:58N 46°46' E 031°57'0 0.0
2018-Jan-28 03:28N 46°46' E 031°57'0 0.0
2018-Jan-28 02:58N 46°46' E 031°57'0 0.0
2018-Jan-28 02:25N 46°46' E 031°57'0 0.0
2018-Jan-28 01:58N 46°46' E 031°57'0 0.0
2018-Jan-28 01:28N 46°46' E 031°57'0 0.0
2018-Jan-28 00:58N 46°46' E 031°57'0 0.0
2018-Jan-28 00:28N 46°46' E 031°57'0 0.0
2018-Jan-27 23:52N 46°46' E 031°57'0 0.0
2018-Jan-27 23:28N 46°46' E 031°57'0 0.0
2018-Jan-27 22:58N 46°46' E 031°57'0 0.0
2018-Jan-27 22:28N 46°46' E 031°57'0 0.0
2018-Jan-27 21:52N 46°46' E 031°57'0 0.0
2018-Jan-27 21:25N 46°46' E 031°57'0 0.0
2018-Jan-27 20:58N 46°46' E 031°57'0 0.0
2018-Jan-27 20:28N 46°46' E 031°57'0 0.0
2018-Jan-27 19:55N 46°46' E 031°57'0 0.0
2018-Jan-27 19:25N 46°46' E 031°57'0 0.0
2018-Jan-27 18:58N 46°46' E 031°57'0 0.0
2018-Jan-27 18:25N 46°46' E 031°57'0 0.0
2018-Jan-27 17:58N 46°46' E 031°57'0 0.0
2018-Jan-27 17:28N 46°46' E 031°57'0 0.0
2018-Jan-27 16:55N 46°46' E 031°57'0 0.0
2018-Jan-27 16:28N 46°46' E 031°57'0 0.0
2018-Jan-27 15:58N 46°46' E 031°57'0 0.0
2018-Jan-27 15:28N 46°46' E 031°57'0 0.0
2018-Jan-27 14:55N 46°46' E 031°57'0 0.0
2018-Jan-27 14:25N 46°46' E 031°57'0 0.0
2018-Jan-27 13:55N 46°46' E 031°57'0 0.0
2018-Jan-27 13:28N 46°46' E 031°57'0 0.0
2018-Jan-27 12:55N 46°46' E 031°57'0 0.0
2018-Jan-27 12:28N 46°46' E 031°57'0 0.0
2018-Jan-27 11:58N 46°46' E 031°57'0 0.0
2018-Jan-27 11:28N 46°46' E 031°57'0 0.0
2018-Jan-27 10:49N 46°46' E 031°57'0 0.0
2018-Jan-27 10:28N 46°46' E 031°57'0 0.0
2018-Jan-27 09:55N 46°46' E 031°57'0 0.0
2018-Jan-27 09:28N 46°46' E 031°57'0 0.0
2018-Jan-27 08:55N 46°46' E 031°57'0 0.0
2018-Jan-27 08:25N 46°46' E 031°57'0 0.0
2018-Jan-27 07:58N 46°46' E 031°57'0 0.0
2018-Jan-27 07:28N 46°46' E 031°57'0 0.0
2018-Jan-27 06:55N 46°46' E 031°57'0 0.0
2018-Jan-27 06:28N 46°46' E 031°57'0 0.0
2018-Jan-27 05:58N 46°46' E 031°57'0 0.0
2018-Jan-27 05:28N 46°46' E 031°57'0 0.0
2018-Jan-27 04:55N 46°46' E 031°57'0 0.0
2018-Jan-27 04:28N 46°46' E 031°57'0 0.0
2018-Jan-27 03:58N 46°46' E 031°57'0 0.0
2018-Jan-27 03:28N 46°46' E 031°57'0 0.0
2018-Jan-27 03:00N 46°46' E 031°57'1 1.8
2018-Jan-27 02:30N 46°46' E 031°56'1 2.1
2018-Jan-27 01:58N 46°45' E 031°55'0 0.0
2018-Jan-27 01:28N 46°45' E 031°55'0 0.0
2018-Jan-27 00:58N 46°45' E 031°55'0 0.0
2018-Jan-27 00:28N 46°45' E 031°55'1 3.1
2018-Jan-27 00:00N 46°44' E 031°56'4 7.1
2018-Jan-26 23:30N 46°40' E 031°56'4 7.3
2018-Jan-26 23:00N 46°37' E 031°53'5 9.8
2018-Jan-26 22:30N 46°36' E 031°46'3 6.7
2018-Jan-26 22:00N 46°36' E 031°41'5 9.6
2018-Jan-26 21:30N 46°35' E 031°34'3 6.2
2018-Jan-26 20:58N 46°36' E 031°29'910.0
2018-Jan-26 20:07N 46°35' E 031°17'110.0
2018-Jan-26 19:58N 46°35' E 031°15'4 9.1
2018-Jan-26 19:30N 46°35' E 031°09'5 9.7
2018-Jan-26 19:00N 46°34' E 031°02'3 6.3
2018-Jan-26 18:30N 46°33' E 030°58'3 5.1
2018-Jan-26 18:01N 46°30' E 030°57'3 6.9
2018-Jan-26 17:30N 46°27' E 030°57'4 8.6
2018-Jan-26 17:01N 46°23' E 030°58'510.9
2018-Jan-26 16:30N 46°20' E 031°05'1 2.8
2018-Jan-26 16:00N 46°18' E 031°06'0 0.0
2018-Jan-26 15:30N 46°18' E 031°06'0 0.0
2018-Jan-26 15:01N 46°18' E 031°06'0 0.0
2018-Jan-26 14:31N 46°18' E 031°06'0 0.0
2018-Jan-26 14:00N 46°18' E 031°06'0 0.0
2018-Jan-26 13:30N 46°18' E 031°06'0 0.2
2018-Jan-26 13:01N 46°18' E 031°06'3 5.0
2018-Jan-26 12:30N 46°16' E 031°03'510.7
2018-Jan-26 12:00N 46°11' E 031°05'713.4
2018-Jan-26 11:27N 46°05' E 031°11'27710.9
2018-Jan-25 10:01N 44°25' E 037°18'014.4
2018-Jan-25 10:00N 44°25' E 037°18'714.5
2018-Jan-25 09:30N 44°29' E 037°27'815.0
2018-Jan-25 09:00N 44°33' E 037°36'714.2
2018-Jan-25 08:30N 44°36' E 037°45'611.0
2018-Jan-25 08:00N 44°40' E 037°51'4 8.6
2018-Jan-25 07:30N 44°43' E 037°48'1 1.6
2018-Jan-25 07:00N 44°44' E 037°47'0 0.0
2018-Jan-25 06:28N 44°44' E 037°47'0 0.0
2018-Jan-25 05:58N 44°44' E 037°47'0 0.0
2018-Jan-25 05:28N 44°44' E 037°47'0 0.0
2018-Jan-25 04:58N 44°44' E 037°47'0 0.0
2018-Jan-25 04:28N 44°44' E 037°47'0 0.0
2018-Jan-25 03:58N 44°44' E 037°47'0 0.0
2018-Jan-25 03:28N 44°44' E 037°47'0 0.0
2018-Jan-25 02:58N 44°44' E 037°47'0 0.0
2018-Jan-25 02:25N 44°44' E 037°47'0 0.0
2018-Jan-25 01:55N 44°44' E 037°47'0 0.0
2018-Jan-25 01:28N 44°44' E 037°47'0 0.0
2018-Jan-25 00:58N 44°44' E 037°47'0 0.0
2018-Jan-25 00:28N 44°44' E 037°47'0 0.0
2018-Jan-24 23:58N 44°44' E 037°47'0 0.0
2018-Jan-24 23:28N 44°44' E 037°47'0 0.0
2018-Jan-24 22:58N 44°44' E 037°47'0 0.0
2018-Jan-24 22:28N 44°44' E 037°47'0 0.0
2018-Jan-24 21:58N 44°44' E 037°47'0 0.0
2018-Jan-24 21:25N 44°44' E 037°47'0 0.0
2018-Jan-24 20:58N 44°44' E 037°47'0 0.0
2018-Jan-24 20:28N 44°44' E 037°47'0 0.0
2018-Jan-24 19:58N 44°44' E 037°47'0 0.0
2018-Jan-24 19:28N 44°44' E 037°47'0 0.0
2018-Jan-24 18:58N 44°44' E 037°47'0 0.0
2018-Jan-24 18:28N 44°44' E 037°47'0 0.0
2018-Jan-24 17:58N 44°44' E 037°47'0 0.0
2018-Jan-24 17:28N 44°44' E 037°47'0 0.0
2018-Jan-24 16:58N 44°44' E 037°47'0 0.0
2018-Jan-24 16:28N 44°44' E 037°47'0 0.0
2018-Jan-24 15:55N 44°44' E 037°47'0 0.0
2018-Jan-24 15:28N 44°44' E 037°47'0 0.0
2018-Jan-24 14:59N 44°44' E 037°47'0 0.0
2018-Jan-24 14:28N 44°44' E 037°47'0 0.0
2018-Jan-24 13:55N 44°44' E 037°47'0 0.0
2018-Jan-24 13:28N 44°44' E 037°47'0 0.0
2018-Jan-24 12:58N 44°44' E 037°47'0 0.0
2018-Jan-24 12:28N 44°44' E 037°47'0 0.0
2018-Jan-24 11:58N 44°44' E 037°47'0 0.0
2018-Jan-24 11:28N 44°44' E 037°47'0 0.0
2018-Jan-24 10:58N 44°44' E 037°47'0 0.0
2018-Jan-24 10:28N 44°44' E 037°47'0 0.0
2018-Jan-24 09:55N 44°44' E 037°47'0 0.0
2018-Jan-24 09:28N 44°44' E 037°47'0 0.0
2018-Jan-24 08:58N 44°44' E 037°47'0 0.0
2018-Jan-24 08:28N 44°44' E 037°47'0 0.0
2018-Jan-24 07:58N 44°44' E 037°47'0 0.0
2018-Jan-24 07:28N 44°44' E 037°47'0 0.0
2018-Jan-24 06:58N 44°44' E 037°47'0 0.0
2018-Jan-24 06:28N 44°44' E 037°47'0 0.0
2018-Jan-24 05:58N 44°44' E 037°47'0 0.0
2018-Jan-24 05:28N 44°44' E 037°47'0 0.0
2018-Jan-24 04:55N 44°44' E 037°47'0 0.0
2018-Jan-24 04:28N 44°44' E 037°47'0 0.0
2018-Jan-24 03:58N 44°44' E 037°47'0 0.0
2018-Jan-24 03:28N 44°44' E 037°47'0 0.0
2018-Jan-24 02:58N 44°44' E 037°47'0 0.0
2018-Jan-24 02:25N 44°44' E 037°47'0 0.0
2018-Jan-24 01:58N 44°44' E 037°47'0 0.0
2018-Jan-24 01:28N 44°44' E 037°47'0 0.0
2018-Jan-24 00:58N 44°44' E 037°47'0 0.0
2018-Jan-24 00:28N 44°44' E 037°47'0 0.0
2018-Jan-23 23:58N 44°44' E 037°47'0 0.0
2018-Jan-23 23:25N 44°44' E 037°47'0 0.0
2018-Jan-23 22:58N 44°44' E 037°47'0 0.0
2018-Jan-23 22:28N 44°44' E 037°47'0 0.0
2018-Jan-23 21:58N 44°44' E 037°47'0 0.0
2018-Jan-23 21:28N 44°44' E 037°47'0 0.0
2018-Jan-23 20:55N 44°44' E 037°47'0 0.0
2018-Jan-23 20:28N 44°44' E 037°47'0 0.0
2018-Jan-23 19:58N 44°44' E 037°47'0 0.0
2018-Jan-23 19:28N 44°44' E 037°47'0 0.0
2018-Jan-23 18:55N 44°44' E 037°47'0 0.0
2018-Jan-23 18:28N 44°44' E 037°47'0 0.0
2018-Jan-23 17:58N 44°44' E 037°47'0 0.0
2018-Jan-23 17:28N 44°44' E 037°47'0 0.0
2018-Jan-23 16:58N 44°44' E 037°47'0 0.0
2018-Jan-23 16:28N 44°44' E 037°47'0 0.0
2018-Jan-23 15:58N 44°44' E 037°47'0 0.0
2018-Jan-23 15:28N 44°44' E 037°47'0 0.0
2018-Jan-23 14:52N 44°44' E 037°47'0 0.0
2018-Jan-23 14:28N 44°44' E 037°47'0 0.0
2018-Jan-23 13:58N 44°44' E 037°47'0 0.0
2018-Jan-23 13:28N 44°44' E 037°47'0 0.0
2018-Jan-23 12:58N 44°44' E 037°47'0 0.0
2018-Jan-23 12:28N 44°44' E 037°47'0 0.0
2018-Jan-23 11:58N 44°44' E 037°47'0 0.0
2018-Jan-23 11:28N 44°44' E 037°47'0 0.0
2018-Jan-23 10:58N 44°44' E 037°47'0 0.0
2018-Jan-23 10:28N 44°44' E 037°47'0 0.0
2018-Jan-23 09:58N 44°44' E 037°47'0 0.0
2018-Jan-23 09:28N 44°44' E 037°47'0 0.0
2018-Jan-23 08:58N 44°44' E 037°47'0 0.0
2018-Jan-23 08:28N 44°44' E 037°47'0 0.0
2018-Jan-23 07:58N 44°44' E 037°47'0 0.0
2018-Jan-23 07:28N 44°44' E 037°47'0 0.0
2018-Jan-23 06:58N 44°44' E 037°47'0 0.0
2018-Jan-23 06:28N 44°44' E 037°47'0 0.0
2018-Jan-23 05:58N 44°44' E 037°47'0 0.0
2018-Jan-23 05:28N 44°44' E 037°47'0 0.0
2018-Jan-23 04:58N 44°44' E 037°47'0 0.0
2018-Jan-23 04:28N 44°44' E 037°47'0 0.0
2018-Jan-23 03:58N 44°44' E 037°47'0 0.0
2018-Jan-23 03:28N 44°44' E 037°47'0 0.0
2018-Jan-23 02:58N 44°44' E 037°47'0 0.0
2018-Jan-23 02:28N 44°44' E 037°47'0 0.0
2018-Jan-23 01:58N 44°44' E 037°47'0 0.0
2018-Jan-23 01:28N 44°44' E 037°47'0 0.0
2018-Jan-23 00:55N 44°44' E 037°47'0 0.0
2018-Jan-23 00:28N 44°44' E 037°47'0 0.0
2018-Jan-22 23:58N 44°44' E 037°47'0 0.0
2018-Jan-22 23:28N 44°44' E 037°47'0 0.0
2018-Jan-22 22:55N 44°44' E 037°47'0 0.0
2018-Jan-22 22:28N 44°44' E 037°47'0 0.0
2018-Jan-22 21:58N 44°44' E 037°47'0 0.0
2018-Jan-22 21:25N 44°44' E 037°47'0 0.0
2018-Jan-22 20:55N 44°44' E 037°47'0 0.0
2018-Jan-22 20:28N 44°44' E 037°47'0 0.0
2018-Jan-22 19:58N 44°44' E 037°47'0 0.0
2018-Jan-22 19:25N 44°44' E 037°47'0 0.0
2018-Jan-22 18:49N 44°44' E 037°47'0 0.0
2018-Jan-22 18:28N 44°44' E 037°47'0 0.0
2018-Jan-22 17:58N 44°44' E 037°47'0 0.0
2018-Jan-22 17:28N 44°44' E 037°47'0 0.0
2018-Jan-22 16:58N 44°44' E 037°47'0 0.0
2018-Jan-22 16:28N 44°44' E 037°47'0 0.0
2018-Jan-22 15:55N 44°44' E 037°47'0 0.0
2018-Jan-22 15:28N 44°44' E 037°47'0 0.0
2018-Jan-22 14:58N 44°44' E 037°47'0 0.0
2018-Jan-22 14:28N 44°44' E 037°47'0 0.0
2018-Jan-22 13:58N 44°44' E 037°47'0 0.0
2018-Jan-22 13:28N 44°44' E 037°47'0 0.0
2018-Jan-22 12:58N 44°44' E 037°47'0 0.0
2018-Jan-22 12:28N 44°44' E 037°47'0 0.0
2018-Jan-22 11:58N 44°44' E 037°47'0 0.0
2018-Jan-22 11:28N 44°44' E 037°47'0 0.0
2018-Jan-22 10:58N 44°44' E 037°47'0 0.0
2018-Jan-22 10:28N 44°44' E 037°47'0 0.0
2018-Jan-22 09:58N 44°44' E 037°47'0 0.0
2018-Jan-22 09:25N 44°44' E 037°47'0 0.0
2018-Jan-22 08:55N 44°44' E 037°47'0 0.0
2018-Jan-22 08:28N 44°44' E 037°47'0 0.0
2018-Jan-22 07:58N 44°44' E 037°47'0 0.0
2018-Jan-22 07:28N 44°44' E 037°47'0 0.0
2018-Jan-22 06:58N 44°44' E 037°47'0 0.0
2018-Jan-22 06:28N 44°44' E 037°47'0 0.0
2018-Jan-22 05:58N 44°44' E 037°47'0 0.0
2018-Jan-22 05:28N 44°44' E 037°47'0 0.0
2018-Jan-22 04:58N 44°44' E 037°47'0 0.0
2018-Jan-22 04:28N 44°44' E 037°47'0 0.0
2018-Jan-22 03:58N 44°44' E 037°47'0 0.0
2018-Jan-22 03:22N 44°44' E 037°47'0 0.0
2018-Jan-22 02:58N 44°44' E 037°47'0 0.0
2018-Jan-22 02:28N 44°44' E 037°47'0 0.0
2018-Jan-22 01:58N 44°44' E 037°47'0 0.0
2018-Jan-22 01:28N 44°44' E 037°47'0 0.0
2018-Jan-22 00:58N 44°44' E 037°47'0 0.0
2018-Jan-22 00:28N 44°44' E 037°47'0 0.0
2018-Jan-21 23:58N 44°44' E 037°47'0 0.0
2018-Jan-21 23:28N 44°44' E 037°47'0 0.0
2018-Jan-21 22:58N 44°44' E 037°47'0 0.0
2018-Jan-21 22:28N 44°44' E 037°47'0 0.0
2018-Jan-21 21:58N 44°44' E 037°47'0 0.0
2018-Jan-21 21:28N 44°44' E 037°47'0 0.0
2018-Jan-21 20:58N 44°44' E 037°47'0 0.0
2018-Jan-21 20:28N 44°44' E 037°47'0 0.0
2018-Jan-21 19:58N 44°44' E 037°47'0 0.0
2018-Jan-21 19:28N 44°44' E 037°47'0 0.0
2018-Jan-21 18:58N 44°44' E 037°47'0 0.0
2018-Jan-21 18:28N 44°44' E 037°47'0 0.0
2018-Jan-21 17:55N 44°44' E 037°47'0 0.0
2018-Jan-21 17:28N 44°44' E 037°47'0 0.0
2018-Jan-21 16:58N 44°44' E 037°47'0 0.0
2018-Jan-21 16:28N 44°44' E 037°47'0 0.0
2018-Jan-21 15:58N 44°44' E 037°47'0 0.0
2018-Jan-21 15:28N 44°44' E 037°47'0 0.0
2018-Jan-21 14:58N 44°44' E 037°47'0 0.0
2018-Jan-21 14:28N 44°44' E 037°47'0 0.0
2018-Jan-21 13:58N 44°44' E 037°47'0 0.0
2018-Jan-21 13:28N 44°44' E 037°47'0 0.0
2018-Jan-21 12:52N 44°44' E 037°47'0 0.0
2018-Jan-21 12:28N 44°44' E 037°47'0 0.0
2018-Jan-21 11:58N 44°44' E 037°47'0 0.0
2018-Jan-21 11:28N 44°44' E 037°47'0 0.0
2018-Jan-21 10:58N 44°44' E 037°47'0 0.0
2018-Jan-21 10:28N 44°44' E 037°47'0 0.0
2018-Jan-21 09:58N 44°44' E 037°47'  

Dump ship's entire track history